»·PEaware :: N763BR KDFW-KLGB

N763BR :: KDFW-KLGB

FLIGHT INFORMATION

Flight Status: Arrived
Operator: Privately registered:
United States
More flights under this callsign
Pilot: John H. (610)
Aircraft: BOEING 737-800
(B738)
More flights by this aircraft type
Origin: KDFW Dallas-Ft Worth Intl
United States
Destination: KLGB Long Beach
United States
More flights between these airports :: More routes between these airports
Route: CEOLA3 CNX J74 SJN J231 TNP PSP KAYOH4
File this flight plan on PilotEdge
Remarks: PREFERRED ALT AT OR BELOW FL330
Altitude:
(Current/Filed)
33,000ft
Speed:
(Current/Filed)
490kts
Departed: 01-Dec-12 08:33 PM
Arrived: 01-Dec-12 11:15 PM
Distance/Time
Traveled:
1058nm/2:42
Distance/Time
To Go:
Arrived

Flight Plot

Page will automatically refresh every two minutes.


Map Options




Map Legend


Flown Route
Filed Route
Departure Airport
Arrival Airport
Navaid (VOR, NDB)
Fix

Horizontal Profiles

Position Reports

Time Latitude Longitude Heading Altitude Ground
Speed
01-Dec-12 20:32 32.915546 -97.049690 267 616ft 0kts
01-Dec-12 20:33 32.915545 -97.049784 270 616ft 2kts
01-Dec-12 20:34 32.915444 -97.050729 184 616ft 2kts
01-Dec-12 20:35 32.910621 -97.050763 180 616ft 94kts
01-Dec-12 20:36 32.855593 -97.051446 180 2582ft 239kts
01-Dec-12 20:37 32.793167 -97.053513 181 5266ft 244kts
01-Dec-12 20:38 32.730738 -97.055520 181 8243ft 239kts
01-Dec-12 20:39 32.695237 -97.099007 250 10745ft 284kts
01-Dec-12 20:40 32.693953 -97.198137 267 13875ft 358kts
01-Dec-12 20:41 32.719579 -97.321264 287 17052ft 439kts
01-Dec-12 20:42 32.767921 -97.458779 287 20341ft 468kts
01-Dec-12 20:43 32.818976 -97.601936 287 23560ft 487kts
01-Dec-12 20:44 32.866921 -97.748333 270 26428ft 488kts
01-Dec-12 20:45 32.866714 -97.884624 262 29299ft 424kts
01-Dec-12 20:46 32.864406 -98.019445 261 32362ft 431kts
01-Dec-12 20:47 32.860420 -98.169573 262 33029ft 489kts
01-Dec-12 20:48 32.855730 -98.333492 263 33022ft 512kts
01-Dec-12 20:49 32.851549 -98.499983 264 33010ft 513kts
01-Dec-12 20:50 32.848296 -98.661958 264 33010ft 513kts
01-Dec-12 20:51 32.846452 -98.830636 265 33010ft 514kts
01-Dec-12 20:52 32.845367 -98.998792 265 33010ft 514kts
01-Dec-12 20:53 32.844592 -99.168355 265 33010ft 514kts
01-Dec-12 20:54 32.843801 -99.338438 265 33010ft 514kts
01-Dec-12 20:55 32.842687 -99.505177 265 33024ft 522kts
01-Dec-12 20:56 32.860528 -99.660912 290 33051ft 532kts
01-Dec-12 20:57 32.920056 -99.820772 291 33085ft 522kts
01-Dec-12 20:58 32.977844 -99.973577 291 33051ft 521kts
01-Dec-12 20:59 33.037523 -100.131077 291 33044ft 522kts
01-Dec-12 21:00 33.096923 -100.287358 291 33040ft 519kts
01-Dec-12 21:01 33.151602 -100.431269 291 33040ft 517kts
01-Dec-12 21:02 33.209794 -100.584837 290 33037ft 515kts
01-Dec-12 21:03 33.268622 -100.740429 290 33040ft 514kts
01-Dec-12 21:04 33.327048 -100.895735 290 33040ft 514kts
01-Dec-12 21:05 33.385116 -101.051228 290 33075ft 514kts
01-Dec-12 21:06 33.441924 -101.204581 291 33090ft 516kts
01-Dec-12 21:07 33.498929 -101.359464 291 33090ft 517kts
01-Dec-12 21:08 33.553216 -101.507631 291 33089ft 517kts
01-Dec-12 21:09 33.609453 -101.661028 291 33105ft 512kts
01-Dec-12 21:10 33.666274 -101.814537 292 33072ft 518kts
01-Dec-12 21:11 33.716154 -101.971757 279 33014ft 509kts
01-Dec-12 21:12 33.745591 -102.136377 279 32999ft 509kts
01-Dec-12 21:13 33.774504 -102.300805 279 33002ft 503kts
01-Dec-12 21:14 33.802514 -102.462705 279 33000ft 500kts
01-Dec-12 21:15 33.829942 -102.622874 279 32996ft 498kts
01-Dec-12 21:16 33.857771 -102.783566 279 33000ft 497kts
01-Dec-12 21:17 33.885909 -102.945501 279 33000ft 497kts
01-Dec-12 21:18 33.908142 -103.073331 280 33051ft 492kts
01-Dec-12 21:19 33.935476 -103.230072 280 33050ft 486kts
01-Dec-12 21:20 33.962535 -103.384698 281 33082ft 483kts
01-Dec-12 21:21 33.989528 -103.538170 281 33020ft 482kts
01-Dec-12 21:22 34.016533 -103.689397 281 33049ft 481kts
01-Dec-12 21:23 34.040362 -103.820722 281 33061ft 481kts
01-Dec-12 21:24 34.068441 -103.975075 281 33050ft 480kts
01-Dec-12 21:25 34.096183 -104.128363 281 33050ft 480kts
01-Dec-12 21:26 34.124164 -104.284632 281 33050ft 480kts
01-Dec-12 21:27 34.151851 -104.441489 281 33050ft 480kts
01-Dec-12 21:28 34.178743 -104.596082 281 33050ft 480kts
01-Dec-12 21:29 34.204506 -104.743898 281 33029ft 485kts
01-Dec-12 21:30 34.233633 -104.911989 281 33031ft 490kts
01-Dec-12 21:31 34.261138 -105.072393 281 33031ft 494kts
01-Dec-12 21:32 34.287021 -105.224550 281 33030ft 495kts
01-Dec-12 21:33 34.313537 -105.381016 281 33030ft 495kts
01-Dec-12 21:34 34.339957 -105.536775 281 33011ft 496kts
01-Dec-12 21:35 34.366246 -105.690971 278 32991ft 496kts
01-Dec-12 21:36 34.370697 -105.829784 271 33005ft 495kts
01-Dec-12 21:37 34.373458 -105.977333 271 33000ft 495kts
01-Dec-12 21:38 34.376014 -106.129733 269 33101ft 504kts
01-Dec-12 21:39 34.378594 -106.280896 270 33123ft 524kts
01-Dec-12 21:40 34.381351 -106.423126 272 33128ft 534kts
01-Dec-12 21:41 34.384218 -106.549962 273 33121ft 532kts
01-Dec-12 21:42 34.387606 -106.670462 273 33120ft 530kts
01-Dec-12 21:43 34.391462 -106.796197 273 33120ft 528kts
01-Dec-12 21:44 34.394038 -106.939756 273 33119ft 526kts
01-Dec-12 21:45 34.396259 -107.102891 270 33105ft 530kts
01-Dec-12 21:46 34.398277 -107.243262 269 33100ft 515kts
01-Dec-12 21:47 34.400565 -107.382353 269 33100ft 503kts
01-Dec-12 21:48 34.403058 -107.515430 270 33100ft 498kts
01-Dec-12 21:49 34.406181 -107.652612 271 33100ft 496kts
01-Dec-12 21:50 34.410520 -107.802583 271 33100ft 495kts
01-Dec-12 21:51 34.415538 -107.966147 272 33100ft 495kts
01-Dec-12 21:52 34.420291 -108.129365 271 33100ft 495kts
01-Dec-12 21:53 34.421559 -108.273717 270 33100ft 495kts
01-Dec-12 21:54 34.420522 -108.402351 269 33135ft 493kts
01-Dec-12 21:55 34.418555 -108.544016 268 33122ft 494kts
01-Dec-12 21:56 34.416833 -108.687653 267 33119ft 498kts
01-Dec-12 21:57 34.415894 -108.841107 267 33120ft 504kts
01-Dec-12 21:58 34.415749 -109.005567 267 33121ft 509kts
01-Dec-12 21:59 34.416576 -109.170246 268 33120ft 512kts
01-Dec-12 22:00 34.412964 -109.334123 265 33120ft 512kts
01-Dec-12 22:01 34.406203 -109.485055 264 33120ft 512kts
01-Dec-12 22:02 34.399431 -109.627225 264 33119ft 512kts
01-Dec-12 22:03 34.393496 -109.772152 264 33120ft 513kts
01-Dec-12 22:04 34.387619 -109.935153 265 33011ft 512kts
01-Dec-12 22:05 34.382022 -110.106011 265 33072ft 513kts
01-Dec-12 22:06 34.376716 -110.275714 265 33070ft 513kts
01-Dec-12 22:07 34.371472 -110.442859 265 32998ft 512kts
01-Dec-12 22:08 34.364969 -110.593787 263 32999ft 511kts
01-Dec-12 22:09 34.355796 -110.757800 263 33000ft 512kts
01-Dec-12 22:10 34.346440 -110.915031 262 32999ft 512kts
01-Dec-12 22:11 34.336143 -111.084483 263 32999ft 512kts
01-Dec-12 22:12 34.326137 -111.253370 263 32999ft 512kts
01-Dec-12 22:13 34.357651 -111.418822 288 33024ft 523kts
01-Dec-12 22:14 34.405050 -111.571090 288 33001ft 523kts
01-Dec-12 22:15 34.455748 -111.730472 289 32946ft 500kts
01-Dec-12 22:16 34.505039 -111.882306 291 32960ft 498kts
01-Dec-12 22:17 34.557534 -112.041725 292 32942ft 505kts
01-Dec-12 22:18 34.607764 -112.192668 292 32939ft 508kts
01-Dec-12 22:19 34.658643 -112.343912 293 32941ft 509kts
01-Dec-12 22:20 34.703177 -112.504402 268 32812ft 508kts
01-Dec-12 22:21 34.685521 -112.654307 261 32957ft 510kts
01-Dec-12 22:22 34.666114 -112.812085 261 32941ft 510kts
01-Dec-12 22:23 34.646056 -112.970577 261 32939ft 510kts
01-Dec-12 22:24 34.625783 -113.126115 261 32940ft 504kts
01-Dec-12 22:25 34.605484 -113.278775 261 32940ft 495kts
01-Dec-12 22:26 34.584387 -113.436336 260 32940ft 492kts
01-Dec-12 22:27 34.564429 -113.586512 259 32938ft 492kts
01-Dec-12 22:28 34.544382 -113.717833 255 32948ft 491kts
01-Dec-12 22:29 34.515971 -113.862923 254 32978ft 492kts
01-Dec-12 22:30 34.495620 -113.964092 254 33000ft 493kts
01-Dec-12 22:31 34.475900 -114.060888 254 32844ft 491kts
01-Dec-12 22:32 34.453629 -114.169042 254 32851ft 488kts
01-Dec-12 22:33 34.428398 -114.290119 254 32851ft 486kts
01-Dec-12 22:34 34.395334 -114.446627 255 32189ft 483kts
01-Dec-12 22:35 34.363019 -114.598076 254 29989ft 463kts
01-Dec-12 22:36 34.335052 -114.727154 254 28187ft 448kts
01-Dec-12 22:37 34.311658 -114.832171 254 26753ft 437kts
01-Dec-12 22:38 34.284647 -114.953011 254 25151ft 426kts
01-Dec-12 22:39 34.259342 -115.067121 254 23690ft 417kts
01-Dec-12 22:40 34.234552 -115.180636 254 22288ft 409kts
01-Dec-12 22:41 34.212179 -115.285133 255 21042ft 403kts
01-Dec-12 22:42 34.188083 -115.399810 255 19939ft 397kts
01-Dec-12 22:43 34.163369 -115.510432 254 19419ft 394kts
01-Dec-12 22:44 34.137110 -115.627609 254 18841ft 391kts
01-Dec-12 22:45 34.111606 -115.748392 255 18232ft 342kts
01-Dec-12 22:46 34.084614 -115.843023 245 17867ft 301kts
01-Dec-12 22:47 34.052313 -115.929906 245 17588ft 300kts
01-Dec-12 22:48 34.020212 -116.016171 245 17309ft 299kts
01-Dec-12 22:49 33.988204 -116.102425 247 17047ft 304kts
01-Dec-12 22:50 33.954420 -116.193921 247 16777ft 313kts
01-Dec-12 22:51 33.921528 -116.283379 247 16512ft 315kts
01-Dec-12 22:52 33.889909 -116.369687 247 16207ft 316kts
01-Dec-12 22:53 33.870103 -116.462853 273 15852ft 313kts
01-Dec-12 22:54 33.874009 -116.559495 273 15432ft 310kts
01-Dec-12 22:55 33.878438 -116.650705 273 15020ft 309kts
01-Dec-12 22:56 33.883653 -116.751143 273 14538ft 306kts
01-Dec-12 22:57 33.888318 -116.840289 273 14025ft 304kts
01-Dec-12 22:58 33.863210 -116.931348 252 13226ft 301kts
01-Dec-12 22:59 33.834938 -117.021236 260 12923ft 301kts
01-Dec-12 23:00 33.823439 -117.109495 263 11843ft 271kts
01-Dec-12 23:01 33.816229 -117.181730 265 10983ft 262kts
01-Dec-12 23:02 33.810127 -117.258535 267 10155ft 243kts
01-Dec-12 23:03 33.805540 -117.330535 268 9499ft 241kts
01-Dec-12 23:04 33.801304 -117.408496 268 8429ft 254kts
01-Dec-12 23:05 33.797107 -117.488488 268 7977ft 229kts
01-Dec-12 23:06 33.792753 -117.563637 268 7992ft 233kts
01-Dec-12 23:07 33.783193 -117.623421 245 7999ft 236kts
01-Dec-12 23:08 33.751532 -117.695496 243 6423ft 266kts
01-Dec-12 23:09 33.720105 -117.767745 243 4275ft 253kts
01-Dec-12 23:10 33.692070 -117.833708 243 3987ft 220kts
01-Dec-12 23:11 33.693465 -117.902473 284 2543ft 256kts
01-Dec-12 23:12 33.705717 -117.961629 284 1592ft 213kts
01-Dec-12 23:13 33.719692 -118.028390 288 1600ft 214kts
01-Dec-12 23:14 33.754698 -118.075154 314 1602ft 212kts
01-Dec-12 23:15 33.792443 -118.120664 314 617ft 169kts
01-Dec-12 23:16 33.816937 -118.150354 313 69ft 55kts
01-Dec-12 23:17 33.824244 -118.157026 27 69ft 23kts
01-Dec-12 23:18 33.824677 -118.150678 94 69ft 20kts
01-Dec-12 23:19 33.825507 -118.149761 268 69ft 0kts
01-Dec-12 23:20 33.825507 -118.149761 268 69ft 0kts
01-Dec-12 23:21 33.825507 -118.149761 268 69ft 0kts

Navigation Log

Ident Type
1. KDFW Airport
2. CEOLA Fix
3. KIRST Fix
4. LBB Navaid
5. CNX Navaid
6. MAXXO Fix
7. DRYHT Fix
8. SJN Navaid
9. CHEAR Fix
10. PAYSO Fix
11. NABOB Fix
12. DRK Navaid
13. HIPPI Fix
14. CADEZ Fix
15. TNP Navaid
16. PSP Navaid
17. BANDS Fix
18. HDF Navaid
19. DEJAY Fix
20. KAYOH Fix
21. JOGIT Fix
22. SLI Navaid
23. KLGB Airport